Wetterdaten der Wetterstation 31177 Harsum

Letzte Wetterlage 29.05.2015 12:06
Wetterdiagramm
Tabellarische Darstellung
Datum Temperatur Windchill Feuchte Luftdruck Windrichtung Windstärke Niederschlag
29.05.2015 12:06 18,7 °C 18,7 °C 46 % 1009,1 hPa 180 0.0 0 l/m²
29.05.2015 11:46 18,4 °C 18,4 °C 44 % 1009,1 hPa 225 0.0 0 l/m²
29.05.2015 11:25 18,7 °C 18,7 °C 41 % 1009,1 hPa 225 1.2 0 l/m²
29.05.2015 11:04 18,9 °C 18,9 °C 44 % 1009,1 hPa 180 0.1 0 l/m²
29.05.2015 10:44 18,9 °C 18,9 °C 43 % 1009,3 hPa 293 0.0 0 l/m²
29.05.2015 10:22 18,5 °C 18,5 °C 45 % 1010,1 hPa 293 0.0 0 l/m²
29.05.2015 09:59 17,2 °C 17,2 °C 46 % 1011,1 hPa 315 0.0 0 l/m²
29.05.2015 09:38 16,8 °C 16,8 °C 59 % 1011,1 hPa 293 0.0 0 l/m²
29.05.2015 09:18 16,7 °C 16,7 °C 68 % 1011,1 hPa 180 0.0 0 l/m²
29.05.2015 08:57 14,8 °C 14,8 °C 79 % 1010,1 hPa 113 0.0 0 l/m²
29.05.2015 08:36 14,3 °C 14,3 °C 84 % 1011,1 hPa 180 0.1 0 l/m²
29.05.2015 08:15 11,8 °C 11,8 °C 98 % 1011,1 hPa 248 0.2 0 l/m²
29.05.2015 07:55 10,2 °C 10,2 °C 98 % 1011,1 hPa 225 0.0 0 l/m²
29.05.2015 07:34 9,3 °C 9,3 °C 98 % 1010,1 hPa 248 0.0 0 l/m²
29.05.2015 07:14 8,3 °C 8,3 °C 98 % 1010,3 hPa 248 0.0 0 l/m²
29.05.2015 06:52 7,8 °C 7,8 °C 98 % 1011,1 hPa 270 0.0 0 l/m²
29.05.2015 06:32 7,3 °C 7,3 °C 98 % 1011,1 hPa 270 0.0 0 l/m²
29.05.2015 06:12 6,8 °C 6,8 °C 98 % 1010,3 hPa 270 0.0 0 l/m²
29.05.2015 05:51 6,6 °C 6,6 °C 98 % 1011,1 hPa 248 0.0 0 l/m²
29.05.2015 05:30 6,4 °C 6,4 °C 98 % 1011,1 hPa 225 0.0 0 l/m²
29.05.2015 05:09 5,8 °C 5,8 °C 98 % 1011,1 hPa 248 0.0 0 l/m²
29.05.2015 04:49 5,1 °C 5,1 °C 97 % 1011,1 hPa 225 0.0 0 l/m²
29.05.2015 04:28 5,4 °C 5,4 °C 96 % 1011,1 hPa 225 0.0 0 l/m²
29.05.2015 04:07 5,8 °C 5,8 °C 97 % 1011,1 hPa 225 0.0 0 l/m²
29.05.2015 03:46 6,0 °C 6,0 °C 96 % 1012,1 hPa 225 0.0 0 l/m²
Neue Wetterwarnung

Neue Niederschlagsmeldung
Neue Meldung
Regen Liveticker
    sehr starker Regen/Gewitter
    starker Regen/Gewitter
    mäßiger bis starker Regen
    mäßiger Regen
    leichter bis mäßiger Regen
    kein Regen